createdAt,value
2022-10-12T00:02:25.131Z,8.30
2022-10-12T00:04:53.408Z,6.60
2022-10-12T00:07:21.663Z,7.57
2022-10-12T00:09:50.012Z,6.37
2022-10-12T00:12:18.259Z,6.07
2022-10-12T00:14:47.879Z,4.90
2022-10-12T00:17:16.141Z,9.67
2022-10-12T00:19:44.510Z,6.17
2022-10-12T00:22:12.767Z,8.33
2022-10-12T00:24:42.964Z,9.87
2022-10-12T00:27:11.391Z,7.90
2022-10-12T00:29:39.633Z,9.80
2022-10-12T00:32:09.440Z,8.17
2022-10-12T00:34:37.736Z,8.40
2022-10-12T00:37:05.972Z,9.73
2022-10-12T00:39:34.267Z,9.70
2022-10-12T00:42:02.538Z,8.90
2022-10-12T00:44:41.147Z,10.47
2022-10-12T00:47:11.800Z,8.43
2022-10-12T00:49:40.027Z,10.43
2022-10-12T00:52:08.876Z,7.10
2022-10-12T00:54:38.839Z,8.13
2022-10-12T00:57:07.091Z,6.07
2022-10-12T00:59:35.820Z,7.77
2022-10-12T01:02:04.213Z,7.30
2022-10-12T01:04:34.145Z,7.47
2022-10-12T01:07:02.384Z,7.13
2022-10-12T01:09:30.644Z,8.80
2022-10-12T01:11:59.004Z,6.37
2022-10-12T01:14:27.246Z,9.43
2022-10-12T01:16:56.106Z,6.33
2022-10-12T01:19:31.357Z,10.23
2022-10-12T01:22:02.386Z,6.43
2022-10-12T01:24:36.683Z,11.80
2022-10-12T01:27:12.456Z,9.87
2022-10-12T01:29:59.653Z,10.60
2022-10-12T01:32:30.490Z,5.67
2022-10-12T01:34:59.811Z,7.53
2022-10-12T01:37:30.901Z,10.27
2022-10-12T01:39:59.160Z,7.70
2022-10-12T01:42:28.467Z,7.83
2022-10-12T01:45:03.354Z,8.80
2022-10-12T01:47:32.967Z,7.53
2022-10-12T01:50:01.397Z,5.03
2022-10-12T01:52:29.944Z,5.17
2022-10-12T01:55:07.470Z,5.87
2022-10-12T01:57:37.652Z,4.70
2022-10-12T02:00:07.245Z,5.97
2022-10-12T02:02:38.698Z,3.67
2022-10-12T02:05:07.610Z,7.37
2022-10-12T02:07:39.106Z,4.47
2022-10-12T02:10:07.988Z,8.70
2022-10-12T02:12:37.206Z,4.60
2022-10-12T02:15:05.803Z,6.03
2022-10-12T02:17:34.102Z,7.80
2022-10-12T02:20:03.743Z,4.03
2022-10-12T02:22:34.449Z,4.53
2022-10-12T02:25:02.916Z,4.83
2022-10-12T02:27:31.198Z,2.37
2022-10-12T02:29:59.540Z,4.97
2022-10-12T02:32:29.297Z,3.10
2022-10-12T02:34:58.597Z,4.03
2022-10-12T02:37:32.515Z,6.27
2022-10-12T02:40:02.102Z,6.70
2022-10-12T02:42:41.757Z,5.50
2022-10-12T02:45:15.051Z,5.37
2022-10-12T02:47:43.316Z,2.83
2022-10-12T02:50:11.562Z,4.63
2022-10-12T02:52:41.249Z,2.53
2022-10-12T02:55:09.517Z,4.57
2022-10-12T02:57:37.985Z,4.80
2022-10-12T03:00:06.937Z,1.53
2022-10-12T03:02:35.171Z,4.53
2022-10-12T03:05:03.432Z,6.07
2022-10-12T03:07:31.803Z,3.53
2022-10-12T03:10:01.407Z,4.00
2022-10-12T03:12:29.634Z,3.10
2022-10-12T03:14:57.905Z,2.43
2022-10-12T03:17:26.184Z,3.53
2022-10-12T03:19:54.420Z,3.03
2022-10-12T03:22:22.685Z,3.90
2022-10-12T03:24:50.933Z,2.50
2022-10-12T03:27:20.583Z,3.33
2022-10-12T03:29:48.818Z,2.67
2022-10-12T03:32:17.043Z,1.97
2022-10-12T03:34:45.292Z,2.70
2022-10-12T03:37:13.550Z,3.00
2022-10-12T03:39:41.970Z,2.83
2022-10-12T03:42:10.687Z,5.33
2022-10-12T03:44:40.292Z,3.10
2022-10-12T03:47:08.535Z,6.70
2022-10-12T03:49:36.849Z,3.17
2022-10-12T03:52:05.109Z,3.70
2022-10-12T03:54:33.351Z,3.43
2022-10-12T03:57:01.622Z,4.93
2022-10-12T03:59:29.854Z,6.87
2022-10-12T04:01:59.480Z,8.33
2022-10-12T04:04:27.739Z,7.77
2022-10-12T04:06:55.941Z,9.63
2022-10-12T04:09:24.177Z,14.13
2022-10-12T04:11:52.417Z,19.60
2022-10-12T04:14:20.628Z,18.30
2022-10-12T04:16:48.887Z,23.27
2022-10-12T04:19:18.546Z,25.80
2022-10-12T04:21:46.751Z,23.87
2022-10-12T04:24:15.038Z,26.00
2022-10-12T04:26:43.302Z,38.93
2022-10-12T04:29:12.993Z,32.93
2022-10-12T04:31:41.248Z,31.73
2022-10-12T04:34:10.449Z,36.57
2022-10-12T04:36:40.462Z,30.00
2022-10-12T04:39:08.674Z,36.03
2022-10-12T04:41:36.928Z,31.43
2022-10-12T04:44:05.153Z,33.57
2022-10-12T04:46:33.444Z,35.03
2022-10-12T04:49:01.695Z,30.90
2022-10-12T04:51:29.968Z,24.60
2022-10-12T04:53:59.578Z,31.90
2022-10-12T04:56:27.896Z,36.90
2022-10-12T04:58:56.163Z,31.53
2022-10-12T05:01:24.470Z,45.07
2022-10-12T05:03:52.769Z,37.23
2022-10-12T05:06:21.009Z,27.77
2022-10-12T05:08:49.273Z,32.93
2022-10-12T05:11:18.930Z,37.00
2022-10-12T05:13:47.177Z,37.73
2022-10-12T05:16:15.437Z,37.60
2022-10-12T05:18:43.697Z,33.93
2022-10-12T05:21:11.921Z,28.53
2022-10-12T05:23:40.180Z,30.83
2022-10-12T05:26:08.465Z,34.27
2022-10-12T05:28:41.142Z,32.33
2022-10-12T05:31:09.686Z,34.60
2022-10-12T05:33:37.947Z,29.70
2022-10-12T05:36:06.437Z,28.60
2022-10-12T05:38:34.843Z,24.30
2022-10-12T05:41:03.317Z,32.53
2022-10-12T05:43:31.580Z,23.90
2022-10-12T05:46:01.335Z,25.03
2022-10-12T05:48:29.649Z,22.73
2022-10-12T05:50:57.880Z,24.90
2022-10-12T05:53:26.156Z,23.23
2022-10-12T05:55:55.015Z,17.87
2022-10-12T05:58:23.499Z,18.63
2022-10-12T06:00:51.769Z,14.80
2022-10-12T06:03:25.723Z,16.20
2022-10-12T06:05:54.621Z,20.97
2022-10-12T06:08:22.877Z,17.23
2022-10-12T06:10:51.754Z,16.17
2022-10-12T06:13:20.197Z,13.33
2022-10-12T06:15:48.477Z,13.87
2022-10-12T06:18:16.854Z,10.77
2022-10-12T06:20:49.222Z,13.30
2022-10-12T06:23:17.533Z,13.33
2022-10-12T06:25:47.215Z,13.27
2022-10-12T06:28:15.644Z,9.00
2022-10-12T06:30:45.389Z,13.20
2022-10-12T06:33:13.626Z,14.47
2022-10-12T06:35:41.860Z,8.47
2022-10-12T06:38:11.475Z,15.37
2022-10-12T06:40:39.753Z,10.87
2022-10-12T06:43:08.005Z,13.67
2022-10-12T06:45:36.404Z,9.17
2022-10-12T06:48:04.786Z,9.07
2022-10-12T06:50:33.043Z,6.83
2022-10-12T06:53:01.375Z,8.23
2022-10-12T06:55:30.980Z,10.70
2022-10-12T06:57:59.267Z,7.97
2022-10-12T07:00:27.622Z,6.73
2022-10-12T07:02:55.876Z,8.13
2022-10-12T07:05:24.956Z,8.30
2022-10-12T07:07:53.549Z,6.57
2022-10-12T07:10:21.833Z,7.63
2022-10-12T07:12:51.890Z,6.70
2022-10-12T07:15:20.246Z,9.00
2022-10-12T07:17:50.094Z,4.83
2022-10-12T07:20:18.392Z,6.03
2022-10-12T07:22:46.899Z,5.30
2022-10-12T07:25:16.352Z,7.73
2022-10-12T07:27:44.804Z,5.07
2022-10-12T07:30:15.211Z,8.70
2022-10-12T07:32:44.600Z,4.63
2022-10-12T07:35:12.879Z,7.43
2022-10-12T07:37:41.537Z,7.17
2022-10-12T07:40:10.378Z,4.57
2022-10-12T07:42:53.730Z,4.33
2022-10-12T07:45:28.684Z,2.30
2022-10-12T07:47:57.151Z,4.77
2022-10-12T07:50:27.525Z,3.33
2022-10-12T07:52:55.999Z,2.93
2022-10-12T07:55:24.312Z,4.17
2022-10-12T07:57:52.564Z,4.47
2022-10-12T08:00:22.173Z,4.10
2022-10-12T08:02:51.810Z,6.60
2022-10-12T08:05:21.223Z,6.20
2022-10-12T08:07:49.701Z,3.43
2022-10-12T08:10:18.195Z,3.80
2022-10-12T08:12:51.159Z,2.70
2022-10-12T08:15:20.707Z,2.90
2022-10-12T08:17:48.926Z,3.13
2022-10-12T08:20:18.593Z,3.87
2022-10-12T08:22:46.904Z,3.37
2022-10-12T08:25:15.308Z,2.87
2022-10-12T08:27:43.719Z,4.50
2022-10-12T08:30:12.647Z,3.77
2022-10-12T08:32:43.359Z,4.70
2022-10-12T08:35:11.638Z,14.13
2022-10-12T08:37:41.887Z,4.73
2022-10-12T08:40:11.342Z,4.27
2022-10-12T08:42:42.683Z,4.03
2022-10-12T08:45:34.917Z,3.77
2022-10-12T08:48:03.755Z,3.37
2022-10-12T08:50:33.678Z,2.93
2022-10-12T08:53:03.841Z,3.83
2022-10-12T08:55:36.172Z,5.13
2022-10-12T08:58:04.576Z,4.47
2022-10-12T09:03:10.463Z,4.57
2022-10-12T09:05:39.377Z,3.77
2022-10-12T09:08:09.775Z,2.40
2022-10-12T09:10:41.616Z,3.60
2022-10-12T09:13:11.831Z,4.43
2022-10-12T09:15:40.551Z,3.00
2022-10-12T09:18:13.613Z,5.43
2022-10-12T09:20:42.849Z,4.07
2022-10-12T09:23:25.675Z,2.40
2022-10-12T09:25:54.584Z,3.37
2022-10-12T09:28:23.738Z,1.83
2022-10-12T09:30:55.581Z,2.43
2022-10-12T09:33:24.360Z,1.80
2022-10-12T09:35:53.887Z,3.07
2022-10-12T09:38:24.574Z,4.07
2022-10-12T09:40:52.827Z,4.07
2022-10-12T09:43:21.064Z,4.37
2022-10-12T09:45:49.403Z,3.20
2022-10-12T09:48:18.785Z,5.10
2022-10-12T09:50:48.099Z,5.23
2022-10-12T09:53:17.529Z,4.37
2022-10-12T09:55:54.491Z,3.10
2022-10-12T09:58:22.946Z,2.67
2022-10-12T10:01:06.068Z,2.93
2022-10-12T10:03:34.497Z,3.70
2022-10-12T10:06:04.964Z,3.33
2022-10-12T10:08:35.775Z,2.80
2022-10-12T10:11:05.420Z,2.57
2022-10-12T10:13:33.768Z,4.10
2022-10-12T10:16:05.413Z,3.60
2022-10-12T10:18:35.293Z,2.53
2022-10-12T10:21:03.881Z,2.47
2022-10-12T10:23:33.630Z,5.07
2022-10-12T10:26:04.741Z,3.73
2022-10-12T10:28:34.886Z,2.23
2022-10-12T10:31:04.131Z,3.00
2022-10-12T10:33:32.577Z,2.27
2022-10-12T10:36:05.627Z,1.80
2022-10-12T10:38:34.997Z,1.63
2022-10-12T10:41:04.638Z,2.30
2022-10-12T10:43:34.414Z,1.53
2022-10-12T10:46:02.813Z,2.37
2022-10-12T10:48:31.981Z,1.67
2022-10-12T10:51:01.340Z,4.37
2022-10-12T10:53:30.051Z,4.07
2022-10-12T10:55:59.486Z,2.93
2022-10-12T10:58:29.629Z,5.50
2022-10-12T11:01:00.232Z,2.83
2022-10-12T11:03:29.777Z,2.67
2022-10-12T11:05:59.550Z,2.37
2022-10-12T11:08:28.263Z,5.13
2022-10-12T11:10:57.950Z,3.53
2022-10-12T11:13:27.550Z,1.73
2022-10-12T11:15:56.577Z,3.00
2022-10-12T11:18:27.719Z,2.40
2022-10-12T11:20:57.015Z,2.87
2022-10-12T11:23:30.533Z,2.17
2022-10-12T11:26:07.645Z,3.40
2022-10-12T11:28:36.047Z,7.53
2022-10-12T11:31:04.419Z,1.60
2022-10-12T11:33:38.639Z,4.40
2022-10-12T11:36:08.094Z,3.17
2022-10-12T11:38:37.823Z,3.07
2022-10-12T11:41:34.348Z,1.90
2022-10-12T11:43:57.243Z,2.83
2022-10-12T11:46:35.602Z,3.10
2022-10-12T11:49:09.909Z,2.87
2022-10-12T11:51:38.191Z,3.40
2022-10-12T11:54:07.801Z,4.87
2022-10-12T11:56:36.790Z,2.47
2022-10-12T11:59:06.411Z,5.23
2022-10-12T12:01:38.291Z,10.83
2022-10-12T12:04:36.407Z,4.23
2022-10-12T12:07:03.117Z,3.20
2022-10-12T12:09:39.720Z,3.53
2022-10-12T12:12:16.185Z,2.80
2022-10-12T12:14:49.134Z,2.93
2022-10-12T12:17:22.682Z,2.53
2022-10-12T12:19:52.447Z,4.23
2022-10-12T12:22:30.781Z,4.87
2022-10-12T12:25:04.646Z,4.03
2022-10-12T12:27:34.140Z,2.97
2022-10-12T12:30:02.614Z,3.37
2022-10-12T12:32:42.323Z,4.97
2022-10-12T12:35:19.513Z,4.57
2022-10-12T12:37:47.936Z,3.23
2022-10-12T12:40:21.366Z,4.60
2022-10-12T12:42:49.785Z,2.97
2022-10-12T12:45:35.685Z,1.67
2022-10-12T12:50:35.565Z,4.73
2022-10-12T12:53:05.041Z,3.83
2022-10-12T12:55:39.339Z,3.50
2022-10-12T12:58:11.208Z,3.37
2022-10-12T13:00:39.784Z,5.73
2022-10-12T13:03:19.104Z,3.83
2022-10-12T13:06:06.148Z,5.10
2022-10-12T13:08:37.999Z,2.90
2022-10-12T13:11:15.352Z,2.73
2022-10-12T13:13:52.220Z,3.70
2022-10-12T13:17:09.428Z,2.67
2022-10-12T13:19:12.650Z,3.67
2022-10-12T13:21:41.378Z,3.53
2022-10-12T13:24:22.251Z,3.53
2022-10-12T13:26:50.766Z,3.33
2022-10-12T13:29:21.563Z,3.47
2022-10-12T13:31:50.004Z,4.27
2022-10-12T13:34:18.788Z,3.83
2022-10-12T13:36:48.814Z,2.70
2022-10-12T13:39:18.870Z,2.43
2022-10-12T13:41:47.208Z,3.77
2022-10-12T13:44:20.894Z,4.83
2022-10-12T13:46:50.928Z,3.97
2022-10-12T13:49:20.162Z,4.20
2022-10-12T13:51:49.097Z,4.73
2022-10-12T13:54:22.327Z,5.20
2022-10-12T13:56:51.053Z,4.10
2022-10-12T13:59:20.331Z,4.90
2022-10-12T14:01:49.605Z,7.07
2022-10-12T14:04:17.896Z,2.53
2022-10-12T14:06:48.567Z,5.90
2022-10-12T14:09:16.997Z,3.53
2022-10-12T14:11:47.409Z,4.10
2022-10-12T14:14:20.256Z,4.70
2022-10-12T14:16:49.780Z,2.93
2022-10-12T14:19:21.726Z,4.17
2022-10-12T14:21:50.213Z,4.63
2022-10-12T14:24:19.078Z,3.43
2022-10-12T14:26:53.726Z,3.67
2022-10-12T14:29:34.524Z,3.50
2022-10-12T14:32:03.157Z,2.10
2022-10-12T14:34:49.349Z,6.20
2022-10-12T14:37:38.541Z,2.47
2022-10-12T14:40:21.673Z,1.77
2022-10-12T14:42:56.911Z,2.43
2022-10-12T14:45:25.785Z,4.43
2022-10-12T14:47:54.035Z,4.57
2022-10-12T14:50:22.782Z,4.63
2022-10-12T14:52:51.894Z,3.07
2022-10-12T14:55:20.685Z,2.80
2022-10-12T14:57:49.120Z,4.37
2022-10-12T15:00:19.336Z,3.40
2022-10-12T15:02:47.666Z,2.07
2022-10-12T15:05:16.546Z,3.83
2022-10-12T15:07:46.795Z,3.43
2022-10-12T15:10:17.357Z,5.13
2022-10-12T15:12:45.621Z,2.53
2022-10-12T15:15:16.744Z,2.43
2022-10-12T15:17:46.446Z,2.67
2022-10-12T15:20:14.721Z,4.27
2022-10-12T15:22:44.723Z,3.23
2022-10-12T15:25:16.633Z,9.17
2022-10-12T15:27:44.908Z,14.97
2022-10-12T15:30:13.869Z,12.80
2022-10-12T15:32:42.278Z,17.07
2022-10-12T15:35:18.948Z,20.43
2022-10-12T15:37:47.532Z,11.27
2022-10-12T15:40:15.793Z,14.27
2022-10-12T15:42:44.089Z,15.07
2022-10-12T15:45:14.711Z,12.43
2022-10-12T15:47:42.961Z,9.10
2022-10-12T15:50:11.314Z,14.17
2022-10-12T15:52:41.019Z,11.23
2022-10-12T15:55:13.607Z,9.40
2022-10-12T15:57:44.744Z,10.13
2022-10-12T16:00:13.451Z,8.37
2022-10-12T16:02:42.375Z,11.93
2022-10-12T16:05:18.182Z,8.00
2022-10-12T16:07:47.842Z,6.53
2022-10-12T16:10:16.488Z,7.33
2022-10-12T16:12:44.944Z,6.93
2022-10-12T16:15:13.792Z,7.57
2022-10-12T16:17:42.056Z,8.13
2022-10-12T16:20:10.935Z,7.73
2022-10-12T16:22:39.320Z,8.30
2022-10-12T16:25:10.407Z,7.90
2022-10-12T16:27:38.743Z,7.33
2022-10-12T16:30:07.958Z,7.80
2022-10-12T16:32:36.213Z,6.83
2022-10-12T16:35:04.554Z,10.03
2022-10-12T16:37:32.963Z,5.63
2022-10-12T16:40:01.267Z,10.53
2022-10-12T16:42:31.217Z,7.27
2022-10-12T16:44:59.891Z,6.83
2022-10-12T16:47:28.234Z,7.07
2022-10-12T16:49:56.656Z,9.63
2022-10-12T16:52:25.541Z,11.03
2022-10-12T16:54:53.849Z,7.13
2022-10-12T16:57:23.828Z,8.93
2022-10-12T16:59:56.328Z,8.17
2022-10-12T17:02:24.600Z,10.13
2022-10-12T17:04:52.862Z,7.77
2022-10-12T17:07:21.116Z,10.70
2022-10-12T17:09:49.455Z,7.13
2022-10-12T17:12:18.121Z,8.83
2022-10-12T17:14:46.887Z,9.03
2022-10-12T17:17:16.586Z,7.07
2022-10-12T17:19:44.936Z,8.33
2022-10-12T17:22:14.105Z,10.00
2022-10-12T17:24:43.261Z,13.80
2022-10-12T17:27:12.139Z,10.07
2022-10-12T17:29:41.312Z,9.23
2022-10-12T17:32:09.603Z,11.87
2022-10-12T17:34:39.892Z,11.23
2022-10-12T17:37:08.285Z,12.97
2022-10-12T17:39:39.446Z,10.93
2022-10-12T17:42:07.930Z,10.63
2022-10-12T17:44:36.272Z,9.03
2022-10-12T17:47:04.501Z,8.73
2022-10-12T17:49:32.936Z,12.93
2022-10-12T17:52:02.564Z,12.17
2022-10-12T17:54:32.194Z,8.57
2022-10-12T17:57:00.513Z,13.43
2022-10-12T17:59:28.923Z,15.53
2022-10-12T18:01:57.242Z,12.33
2022-10-12T18:04:25.833Z,8.53
2022-10-12T18:06:54.146Z,8.20
2022-10-12T18:09:23.762Z,11.33
2022-10-12T18:11:52.103Z,14.07
2022-10-12T18:14:20.620Z,12.27
2022-10-12T18:16:48.851Z,14.73
2022-10-12T18:19:17.245Z,12.97
2022-10-12T18:21:45.552Z,13.20
2022-10-12T18:24:17.598Z,17.30
2022-10-12T18:26:47.703Z,16.37
2022-10-12T18:29:16.180Z,14.73
2022-10-12T18:31:44.915Z,13.87
2022-10-12T18:34:13.165Z,11.07
2022-10-12T18:36:42.862Z,16.80
2022-10-12T18:39:11.191Z,15.87
2022-10-12T18:41:39.896Z,18.33
2022-10-12T18:44:09.638Z,15.20
2022-10-12T18:46:38.072Z,19.33
2022-10-12T18:49:07.932Z,18.60
2022-10-12T18:51:36.662Z,18.60
2022-10-12T18:54:05.133Z,20.00
2022-10-12T18:56:33.625Z,21.37
2022-10-12T18:59:01.998Z,18.03
2022-10-12T19:01:31.733Z,18.03
2022-10-12T19:04:00.551Z,18.20
2022-10-12T19:06:29.183Z,17.33
2022-10-12T19:08:57.959Z,16.57
2022-10-12T19:11:26.539Z,14.43
2022-10-12T19:13:54.933Z,19.13
2022-10-12T19:16:23.307Z,20.37
2022-10-12T19:18:56.110Z,18.87
2022-10-12T19:21:24.550Z,14.40
2022-10-12T19:23:52.851Z,16.93
2022-10-12T19:26:23.174Z,13.77
2022-10-12T19:28:51.797Z,18.40
2022-10-12T19:31:20.880Z,15.17
2022-10-12T19:33:49.269Z,13.23
2022-10-12T19:36:19.685Z,14.13
2022-10-12T19:38:48.053Z,17.87
2022-10-12T19:41:16.436Z,15.23
2022-10-12T19:43:44.748Z,10.67
2022-10-12T19:46:13.287Z,11.53
2022-10-12T19:48:42.014Z,12.37
2022-10-12T19:51:11.251Z,19.63
2022-10-12T19:53:41.575Z,20.03
2022-10-12T19:56:10.210Z,19.33
2022-10-12T19:58:38.559Z,16.93
2022-10-12T20:01:07.534Z,13.60
2022-10-12T20:03:35.996Z,15.17
2022-10-12T20:06:07.863Z,13.33
2022-10-12T20:08:36.380Z,16.63
2022-10-12T20:11:06.119Z,17.23
2022-10-12T20:13:34.498Z,19.10
2022-10-12T20:16:02.891Z,15.67
2022-10-12T20:18:31.673Z,18.03
2022-10-12T20:21:00.562Z,17.67
2022-10-12T20:23:28.909Z,19.50
2022-10-12T20:25:57.286Z,14.67
2022-10-12T20:28:27.364Z,17.40
2022-10-12T20:31:00.299Z,18.73
2022-10-12T20:33:30.837Z,16.30
2022-10-12T20:35:59.139Z,18.10
2022-10-12T20:38:27.430Z,18.53
2022-10-12T20:41:03.233Z,18.73
2022-10-12T20:43:32.947Z,16.33
2022-10-12T20:46:03.750Z,17.03
2022-10-12T20:48:32.073Z,23.20
2022-10-12T20:51:00.764Z,18.43
2022-10-12T20:53:29.686Z,19.27
2022-10-12T20:55:57.963Z,18.23
2022-10-12T20:58:28.021Z,18.00
2022-10-12T21:01:04.985Z,17.93
2022-10-12T21:03:33.390Z,14.77
2022-10-12T21:06:05.003Z,12.70
2022-10-12T21:08:33.294Z,12.33
2022-10-12T21:11:01.599Z,17.53
2022-10-12T21:13:31.764Z,15.07
2022-10-12T21:16:00.027Z,16.23
2022-10-12T21:18:32.915Z,14.10
2022-10-12T21:21:05.877Z,17.73
2022-10-12T21:23:34.194Z,15.87
2022-10-12T21:26:02.679Z,14.63
2022-10-12T21:28:31.373Z,10.50
2022-10-12T21:31:00.144Z,11.13
2022-10-12T21:33:30.214Z,11.70
2022-10-12T21:36:07.149Z,14.33
2022-10-12T21:38:36.419Z,14.23
2022-10-12T21:41:04.790Z,12.63
2022-10-12T21:43:33.187Z,12.67
2022-10-12T21:46:03.797Z,14.13
2022-10-12T21:48:33.450Z,9.37
2022-10-12T21:51:01.719Z,14.00
2022-10-12T21:53:30.100Z,13.93
2022-10-12T21:55:58.586Z,13.10
2022-10-12T21:58:26.810Z,12.23
2022-10-12T22:00:55.135Z,16.13
2022-10-12T22:03:23.793Z,15.10
2022-10-12T22:05:53.380Z,17.97
2022-10-12T22:08:21.650Z,15.90
2022-10-12T22:10:50.365Z,12.67
2022-10-12T22:13:18.628Z,13.63
2022-10-12T22:15:46.849Z,17.33
2022-10-12T22:18:15.120Z,13.60
2022-10-12T22:20:43.368Z,16.23
2022-10-12T22:23:12.996Z,13.43
2022-10-12T22:25:41.316Z,13.27
2022-10-12T22:28:09.605Z,13.50
2022-10-12T22:30:40.341Z,15.20
2022-10-12T22:33:08.609Z,13.20
2022-10-12T22:35:36.847Z,15.03
2022-10-12T22:38:05.155Z,20.60
2022-10-12T22:40:34.806Z,14.50
2022-10-12T22:43:03.061Z,14.37
2022-10-12T22:45:31.317Z,12.53
2022-10-12T22:47:59.591Z,14.37
2022-10-12T22:50:27.840Z,11.73
2022-10-12T22:52:56.095Z,15.73
2022-10-12T22:55:24.396Z,17.00
2022-10-12T22:57:54.022Z,16.57
2022-10-12T23:00:22.429Z,13.77
2022-10-12T23:02:50.727Z,13.87
2022-10-12T23:05:18.956Z,17.37
2022-10-12T23:07:47.210Z,11.17
2022-10-12T23:10:15.481Z,13.47
2022-10-12T23:12:43.742Z,13.30
2022-10-12T23:15:13.599Z,14.70
2022-10-12T23:17:41.884Z,10.60
2022-10-12T23:20:10.516Z,15.20
2022-10-12T23:22:38.777Z,12.53
2022-10-12T23:25:07.474Z,15.73
2022-10-12T23:27:35.722Z,14.47
2022-10-12T23:30:03.985Z,16.13
2022-10-12T23:32:33.597Z,13.87
2022-10-12T23:35:01.838Z,15.20
2022-10-12T23:37:30.644Z,15.63
2022-10-12T23:39:58.894Z,17.60
2022-10-12T23:42:27.143Z,16.47
2022-10-12T23:44:55.416Z,17.47
2022-10-12T23:47:23.687Z,17.40
2022-10-12T23:49:53.293Z,17.30
2022-10-12T23:52:21.686Z,17.77
2022-10-12T23:54:49.941Z,19.00
2022-10-12T23:57:45.228Z,18.07
